« めんそーれ那覇 那覇空港 2016/12/9 fri | トップページ | 美ら島エアーフェスタ2016【実働編】 那覇空港 2016/12/10 sat »

2016/12/14

美ら島エアーフェスタ2016【B.I.編】 那覇空港 2016/12/10 sat

美ら島エアーフェスタ 開催日程が発表になり、イベント名称が公募されて決まりました。当初ブルー参加は未定でしたが、シーズン終わりの締めくくりに2日間公開されると言う、嬉しい航空祭になりました。但し慣熟飛行は無く、結局両日とも基地内で見ることに・・

20161210_roah_bi00

飛行群の建物が新築になり、広くなったエプロンで、列線を横から眺められました。

20161210_roah_bi01

あたりまえながら#725の姿は拝めませんでした。

20161210_roah_bi02

こんなコラボも那覇ならでは

ROAH 100530Z 01014KT 9999 SCT040 23/14 Q1017 RMK 3SC040 A3004

20161210_roah_bi03

キーパーさん達が出てきた・・

20161210_roah_bi04

続いてライダーさん達も、テクテク

20161210_roah_bi05

エアラインのお客さんも、ビックリかな

20161210_roah_bi06

細かいところまで、入念に点検

20161210_roah_bi07

一番機のライダーさんのヘルメット

ROAH 100600Z 01014KT 350V090 9999 SCT044 24/14 Q1017 RMK 3SC044 A3003

20161210_roah_bi08

静止点検終了して、ヨロシクしながら集合

20161210_roah_bi09

左に倣え

20161210_roah_bi10

やすめ・・

20161210_roah_bi11

キーパーさんも横一列

20161210_roah_bi12

ウォークダウン開始

20161210_roah_bi13

敬礼、よろしく

20161210_roah_bi14t465726

一同整列して、これから乗り込みになります。

20161210_roah_bi15t465726

20161210_roah_bi16t465726

エンジン・スタート

20161210_roah_bi17t465726

Dolphin commander

20161210_roah_bi18t465731

#1 46-5726 T-4 11SQ

20161210_roah_bi19t465726

グゥィィィン シュワシュワ・・ と、音が聞こえそう

20161210_roah_bi20t465728

#2 46-5728 T-4 11SQ

20161210_roah_bi21t465728

20161210_roah_bi22t465731

#3 46-5731 T-4 11SQ

20161210_roah_bi23t465731

20161210_roah_bi24t465729

#4 46-5729 T-4 11SQ

20161210_roah_bi25t465729

20161210_roah_bi26t465730

#5 46-5730 T-4 11SQ

20161210_roah_bi27t465730

20161210_roah_bi28t265805

#6 26-5805 T-4 11SQ

20161210_roah_bi29

キーパーさん列線から離脱、整列

20161210_roah_bi30t065787

06-5787 T-4 11SQ お留守ばーん

ROAH 100630Z 01013KT 9999 FEW043 24/13 Q1016 RMK 2SC043 A3003

20161210_roah_bi31

RW36 で、スモック

20161210_roah_bi32

場所が悪くて、#1-#4 のフォーメーションテイクオフは、見れず

20161210_roah_bi33

左周りのトラフィックで5区分

20161210_roah_bi34

瀬長島方向から進入

20161210_roah_bi35

フェニックス・ローパスから

20161210_roah_bi36

20161210_roah_bi37

プロシード・ドーナッツ

20161210_roah_bi38

20161210_roah_bi39

リーダーズ・ベネフィット・ローパス

20161210_roah_bi40

20161210_roah_bi41

ポイント・スター・ローパス

20161210_roah_bi42

20161210_roah_bi43

20161210_roah_bi44

デルタ・スリー・シックスティ・ターン

20161210_roah_bi45

レベル・オープナー

ROAH 100700Z 03009KT 290V070 9999 FEW043 23/12 Q1016 RMK 2SC043 A3003 ROUGH AIR 10KT GAIN OBS AT 0631Z ON SHORT FNA RWY36 200FT B772

20161210_roah_bi46

20161210_roah_bi47

オリジナル・レベル・キューピッド

20161210_roah_bi48

20161210_roah_bi49

ピラミッド・ローパス

20161210_roah_bi50

20161210_roah_bi51

20161210_roah_bi52

20161210_roah_bi53

サクラ

20161210_roah_bi54

20161210_roah_bi55

このモクモク感がイイね

20161210_roah_bi56

20161210_roah_bi57

クリスマスツリー・ローパス

20161210_roah_bi58

そのママゲット・イン・トレイル

20161210_roah_bi59

20161210_roah_bi60

警戒の隊員さんも・・ 青組みのお客さんも・・ 見たいよね

20161210_roah_bi61

全機着陸

20161210_roah_bi62

20161210_roah_bi63

20161210_roah_bi64

20161210_roah_bi65

もう陽が傾いてきて、赤味を帯びています。

20161210_roah_bi66

20161210_roah_bi67

20161210_roah_bi68

外航が多くて・・

20161210_roah_bi69

さあ、エプロンに進入して、最後まで・・

20161210_roah_bi70t465729

20161210_roah_bi71t265805

ソロソロ

20161210_roah_bi72t265805

エンジン・シャットダウン はい、おしまい

ROAH 100730Z 03009KT 9999 SCT042 23/12 Q1017 RMK 3SC042 A3003

20161210_roah_bi73t465728

今日の基地祭は、まだまだ続きますが、明日に向けて整備に余念がありません。

20161210_roah_bi74

お腹もいっぱいにして・・ 明日またネ!

|

« めんそーれ那覇 那覇空港 2016/12/9 fri | トップページ | 美ら島エアーフェスタ2016【実働編】 那覇空港 2016/12/10 sat »

BI」カテゴリの記事

那覇空港」カテゴリの記事

コメント

コメントを書く



(ウェブ上には掲載しません)


コメントは記事投稿者が公開するまで表示されません。



トラックバック


この記事へのトラックバック一覧です: 美ら島エアーフェスタ2016【B.I.編】 那覇空港 2016/12/10 sat:

« めんそーれ那覇 那覇空港 2016/12/9 fri | トップページ | 美ら島エアーフェスタ2016【実働編】 那覇空港 2016/12/10 sat »